Atlantic Beach, North Carolina
Current Conditions -  °F | °C
As of 8:58 PM on Saturday 20 Dec 2014 (Local Time) from KMRH Reporting Station
Overcast Overcast  
Wind Chill: 36°   Ceiling: 7000
Heat Index: 41°   Visibility: 10mi
Dew Point: 38°   Wind: 7mph
Humidity: 89%   Direction: 20°NNE
Pressure: 30.27"   Gusts: NA
Location:  34.7°N, 76.74°W
Report Text: KMRH 210158Z AUTO 02006KT 10SM OVC070 05/03 A3027 RMK AO2 SLP250 I1000 T00500033 TSNO
Loading
Personal Weather Stations






























Interactive Weather Map New forecast layout! Learn more

10-Day Weather Forecast

Advertisements
Track Severe Weather on mobile